Time;durP1;ratioP1;P1;durP2;ratioP2;P2;SDS_P1;SDS_P2;PMS_P1;PMS_P2;Temp;Humidity;BMP_temperature;BMP_pressure;BME280_temperature;BME280_humidity;BME280_pressure;Samples;Min_cycle;Max_cycle;Signal;HPM_P1;HPM_P2
2021/06/12 00:00:09;;;;;;;;;;;;;;;16.54;68.87;100817.39;1651570;84;20098;-75
2021/06/12 00:02:36;;;;;;;;;;;;;;;16.53;68.75;100819.59;1644522;85;20142;-75
2021/06/12 00:05:05;;;;;;;;;;;;;;;16.57;68.99;100820.80;1640095;86;20143;-75
2021/06/12 00:07:30;;;;;;;;;;;;;;;16.62;69.22;100818.86;1622439;87;20133;-75
2021/06/12 00:09:56;;;;;;;;;;;;;;;16.65;69.18;100823.97;1627498;86;20187;-75
2021/06/12 00:12:22;;;;;;;;;;;;;;;16.68;69.30;100814.72;1642509;86;20183;-75
2021/06/12 00:14:48;;;;;;;;;;;;;;;16.69;69.35;100814.66;1642655;87;20097;-75
2021/06/12 00:17:14;;;;;;;;;;;;;;;16.67;69.28;100817.78;1652487;86;20178;-75
2021/06/12 00:19:40;;;;;;;;;;;;;;;16.69;69.32;100823.80;1647386;85;20101;-75
2021/06/12 00:22:07;;;;;;;;;;;;;;;16.72;69.43;100824.98;1641420;86;20215;-75
2021/06/12 00:24:33;;;;;;;;;;;;;;;16.73;69.32;100819.31;1640774;86;20189;-75
2021/06/12 00:26:59;;;;;;;;;;;;;;;16.76;69.42;100816.58;1640001;86;20823;-75
2021/06/12 00:29:25;;;;;;;;;;;;;;;16.77;69.45;100820.44;1640600;86;20205;-75
2021/06/12 00:31:51;;;;;;;;;;;;;;;16.78;69.54;100819.53;1640695;86;20266;-75
2021/06/12 00:34:17;;;;;;;;;;;;;;;16.80;69.62;100813.80;1640327;86;20202;-75
2021/06/12 00:36:43;;;;;;;;;;;;;;;16.84;69.72;100814.07;1640945;86;20205;-75
2021/06/12 00:39:09;;;;;;;;;;;;;;;16.88;69.82;100822.19;1640856;86;20583;-75
2021/06/12 00:41:35;;;;;;;;;;;;;;;16.92;69.76;100820.77;1634941;86;20185;-75
2021/06/12 00:44:01;;;;;;;;;;;;;;;16.89;69.39;100820.42;1640297;87;20255;-75
2021/06/12 00:46:28;;;;;;;;;;;;;;;16.91;69.74;100818.61;1642989;86;20232;-75
2021/06/12 00:48:54;;;;;;;;;;;;;;;16.93;69.77;100822.47;1640071;86;20101;-75
2021/06/12 00:51:21;;;;;;;;;;;;;;;16.88;69.39;100813.50;1643142;86;20697;-75
2021/06/12 00:53:47;;;;;;;;;;;;;;;16.83;69.60;100812.83;1641821;86;20133;-75
2021/06/12 00:56:16;;;;;;;;;;;;;;;16.80;69.47;100814.25;1640392;86;20210;-75
2021/06/12 00:58:43;;;;;;;;;;;;;;;16.78;69.59;100814.77;1648602;86;20264;-75
2021/06/12 01:01:17;;;;;;;;;;;;;;;16.80;69.89;100809.02;1647266;86;20289;-75
2021/06/12 01:03:45;;;;;;;;;;;;;;;16.82;69.85;100808.52;1632199;85;20186;-75
2021/06/12 01:06:12;;;;;;;;;;;;;;;16.84;69.93;100806.70;1629242;87;20193;-75
2021/06/12 01:08:41;;;;;;;;;;;;;;;16.87;70.13;100806.12;1630576;86;20126;-75
2021/06/12 01:11:08;;;;;;;;;;;;;;;16.91;70.21;100802.94;1628040;86;20102;-75
2021/06/12 01:13:55;;;;;;;;;;;;;;;16.87;69.80;100803.96;1630529;86;20169;-75
2021/06/12 01:16:31;;;;;;;;;;;;;;;16.84;70.16;100798.86;1612931;86;20185;-75
2021/06/12 01:19:00;;;;;;;;;;;;;;;16.90;70.32;100799.08;1629532;85;20177;-75
2021/06/12 01:21:35;;;;;;;;;;;;;;;16.89;70.06;100794.30;1630859;86;20154;-75
2021/06/12 01:24:07;;;;;;;;;;;;;;;16.90;69.97;100793.85;1630602;86;20230;-75
2021/06/12 01:26:43;;;;;;;;;;;;;;;16.92;70.30;100787.66;1607086;87;20193;-76
2021/06/12 01:29:29;;;;;;;;;;;;;;;16.95;70.43;100780.16;1625698;86;20150;-76
2021/06/12 01:31:56;;;;;;;;;;;;;;;16.96;70.23;100777.94;1630055;85;20090;-76
2021/06/12 01:34:23;;;;;;;;;;;;;;;16.95;70.31;100771.86;1631492;86;20110;-76
2021/06/12 01:36:49;;;;;;;;;;;;;;;16.97;70.44;100782.25;1614140;87;20146;-76
2021/06/12 01:39:20;;;;;;;;;;;;;;;16.98;70.54;100777.42;1631680;86;20094;-76
2021/06/12 01:41:47;;;;;;;;;;;;;;;16.96;70.16;100776.63;1631390;86;20470;-76
2021/06/12 01:44:14;;;;;;;;;;;;;;;16.96;70.60;100774.88;1631330;87;20110;-76
2021/06/12 01:46:40;;;;;;;;;;;;;;;16.94;70.25;100766.70;1646495;86;20124;-76
2021/06/12 01:49:07;;;;;;;;;;;;;;;16.93;70.51;100763.23;1633263;86;20180;-76
2021/06/12 01:51:35;;;;;;;;;;;;;;;16.97;70.60;100760.89;1631352;86;20126;-76
2021/06/12 01:54:03;;;;;;;;;;;;;;;16.95;70.39;100760.11;1638840;86;20122;-76
2021/06/12 01:56:30;;;;;;;;;;;;;;;16.95;70.43;100757.95;1642742;86;20096;-76
2021/06/12 01:58:57;;;;;;;;;;;;;;;16.90;70.32;100756.83;1636102;86;20102;-76
2021/06/12 02:01:25;;;;;;;;;;;;;;;16.89;70.60;100752.52;1633708;86;20102;-76
2021/06/12 02:03:52;;;;;;;;;;;;;;;16.90;70.76;100749.45;1626770;87;20110;-76
2021/06/12 02:06:19;;;;;;;;;;;;;;;16.91;70.88;100742.00;1650820;85;20131;-76
2021/06/12 02:08:46;;;;;;;;;;;;;;;16.89;70.90;100745.98;1615227;87;20145;-76
2021/06/12 02:11:13;;;;;;;;;;;;;;;16.91;70.98;100748.08;1650532;85;20124;-76
2021/06/12 02:13:41;;;;;;;;;;;;;;;16.90;71.00;100738.55;1626570;85;20130;-76
2021/06/12 02:16:08;;;;;;;;;;;;;;;16.90;70.77;100741.61;1650767;85;20143;-76
2021/06/12 02:18:36;;;;;;;;;;;;;;;16.88;70.90;100742.98;1652726;85;20101;-76
2021/06/12 02:21:03;;;;;;;;;;;;;;;16.90;71.18;100737.23;1657234;85;20138;-76
2021/06/12 02:23:30;;;;;;;;;;;;;;;16.91;71.08;100731.10;1649175;85;20138;-76
2021/06/12 02:25:56;;;;;;;;;;;;;;;16.85;71.00;100730.89;1643012;85;20114;-76
2021/06/12 02:28:24;;;;;;;;;;;;;;;16.87;71.11;100737.36;1610925;88;20129;-76
2021/06/12 02:30:59;;;;;;;;;;;;;;;16.88;71.22;100737.30;1649133;85;20110;-76
2021/06/12 02:33:26;;;;;;;;;;;;;;;16.90;71.27;100733.78;1644937;85;20110;-76
2021/06/12 02:35:53;;;;;;;;;;;;;;;16.94;71.33;100734.90;1660378;85;20126;-76
2021/06/12 02:38:19;;;;;;;;;;;;;;;16.90;70.96;100728.09;1650687;85;20090;-76
2021/06/12 02:40:45;;;;;;;;;;;;;;;16.87;71.16;100719.92;1647069;85;20106;-76
2021/06/12 02:43:11;;;;;;;;;;;;;;;16.86;71.07;100719.53;1656619;85;20098;-76
2021/06/12 02:45:37;;;;;;;;;;;;;;;16.82;71.19;100717.10;1661126;85;20198;-76
2021/06/12 02:48:07;;;;;;;;;;;;;;;16.83;71.29;100717.05;1669369;84;131247;-76
2021/06/12 02:50:35;;;;;;;;;;;;;;;16.84;71.44;100714.83;1660547;85;20118;-76
2021/06/12 02:53:05;;;;;;;;;;;;;;;16.87;71.45;100712.09;1656616;85;20106;-76
2021/06/12 02:55:35;;;;;;;;;;;;;;;16.88;71.47;100715.55;1664626;85;20088;-76
2021/06/12 02:58:01;;;;;;;;;;;;;;;16.87;71.49;100712.09;1654391;85;20173;-76
2021/06/12 03:00:28;;;;;;;;;;;;;;;16.90;71.66;100716.80;1658053;85;20126;-76
2021/06/12 03:02:54;;;;;;;;;;;;;;;16.88;71.55;100710.33;1653123;85;20098;-76
2021/06/12 03:05:23;;;;;;;;;;;;;;;16.87;71.58;100705.56;1662170;86;20123;-76
2021/06/12 03:07:52;;;;;;;;;;;;;;;16.90;71.58;100704.59;1649157;85;20097;-76
2021/06/12 03:10:18;;;;;;;;;;;;;;;16.90;71.70;100699.36;1655033;86;20105;-76
2021/06/12 03:12:47;;;;;;;;;;;;;;;16.91;71.64;100698.45;1645852;86;20097;-76
2021/06/12 03:15:15;;;;;;;;;;;;;;;16.93;71.83;100696.62;1642146;86;20106;-76
2021/06/12 03:17:46;;;;;;;;;;;;;;;16.97;71.86;100689.06;1643240;86;20121;-76
2021/06/12 03:20:14;;;;;;;;;;;;;;;17.00;71.90;100702.00;1653142;86;20141;-76
2021/06/12 03:22:42;;;;;;;;;;;;;;;17.01;71.75;100705.00;1643039;86;20134;-76
2021/06/12 03:25:09;;;;;;;;;;;;;;;17.04;71.89;100702.27;1642806;86;20113;-76
2021/06/12 03:27:35;;;;;;;;;;;;;;;17.07;71.89;100697.37;1651465;86;20097;-76
2021/06/12 03:30:04;;;;;;;;;;;;;;;17.10;71.92;100695.94;1638388;86;20089;-76
2021/06/12 03:32:30;;;;;;;;;;;;;;;17.14;71.96;100693.13;1643660;86;20097;-76
2021/06/12 03:34:57;;;;;;;;;;;;;;;17.19;72.11;100694.22;1650023;84;20107;-76
2021/06/12 03:37:24;;;;;;;;;;;;;;;17.21;71.89;100698.92;1643340;86;20141;-76
2021/06/12 03:39:50;;;;;;;;;;;;;;;17.26;72.01;100697.42;1629532;87;20572;-76
2021/06/12 03:42:16;;;;;;;;;;;;;;;17.32;72.17;100704.55;1643198;86;20806;-76
2021/06/12 03:44:45;;;;;;;;;;;;;;;17.38;72.12;100705.59;1643088;86;20743;-76
2021/06/12 03:47:11;;;;;;;;;;;;;;;17.42;72.13;100699.33;1641239;86;20165;-76
2021/06/12 03:49:38;;;;;;;;;;;;;;;17.48;72.08;100696.91;1614485;87;20145;-76
2021/06/12 03:52:05;;;;;;;;;;;;;;;17.54;72.09;100696.64;1642965;86;20425;-76
2021/06/12 03:54:32;;;;;;;;;;;;;;;17.60;72.16;100688.53;1646540;86;20131;-76
2021/06/12 03:56:59;;;;;;;;;;;;;;;17.68;72.17;100699.50;1642374;86;20853;-76
2021/06/12 03:59:25;;;;;;;;;;;;;;;17.72;72.13;100691.06;1643144;86;20426;-76
2021/06/12 04:01:52;;;;;;;;;;;;;;;17.74;71.94;100691.39;1648896;86;20761;-76
2021/06/12 04:04:20;;;;;;;;;;;;;;;17.82;72.18;100691.05;1667740;84;20432;-76
2021/06/12 04:06:46;;;;;;;;;;;;;;;17.91;72.18;100690.64;1660152;85;20127;-76
2021/06/12 04:09:13;;;;;;;;;;;;;;;17.98;71.92;100691.21;1654957;85;20421;-76
2021/06/12 04:11:39;;;;;;;;;;;;;;;18.01;72.18;100692.38;1650468;87;20212;-76
2021/06/12 04:14:05;;;;;;;;;;;;;;;18.10;72.22;100693.27;1597600;87;20761;-76
2021/06/12 04:16:32;;;;;;;;;;;;;;;18.10;71.77;100694.13;1605996;88;20178;-76
2021/06/12 04:19:01;;;;;;;;;;;;;;;18.14;71.91;100690.45;1581492;89;20706;-76
2021/06/12 04:21:27;;;;;;;;;;;;;;;18.20;71.90;100690.12;1590900;89;20746;-76
2021/06/12 04:23:54;;;;;;;;;;;;;;;18.22;71.63;100687.91;1606772;86;20699;-76
2021/06/12 04:26:20;;;;;;;;;;;;;;;18.26;72.02;100690.31;1578371;90;20468;-76
2021/06/12 04:28:46;;;;;;;;;;;;;;;18.38;72.13;100688.89;1606622;88;20722;-76
2021/06/12 04:31:12;;;;;;;;;;;;;;;18.47;71.87;100691.92;1607989;88;20871;-76
2021/06/12 04:33:38;;;;;;;;;;;;;;;18.53;71.88;100682.47;1602935;87;20801;-76
2021/06/12 04:36:04;;;;;;;;;;;;;;;18.59;71.64;100672.62;1618412;86;20242;-76
2021/06/12 04:38:30;;;;;;;;;;;;;;;18.66;71.72;100670.13;1600247;89;20452;-76
2021/06/12 04:40:56;;;;;;;;;;;;;;;18.74;71.61;100667.49;1605321;87;20832;-76
2021/06/12 04:43:22;;;;;;;;;;;;;;;18.83;71.61;100670.97;1607429;88;20878;-76
2021/06/12 04:45:48;;;;;;;;;;;;;;;18.96;71.63;100663.36;1607912;88;20493;-76
2021/06/12 04:48:15;;;;;;;;;;;;;;;19.05;71.43;100656.80;1607580;87;20581;-76
2021/06/12 04:50:41;;;;;;;;;;;;;;;19.14;71.51;100656.34;1607570;88;20460;-76
2021/06/12 04:53:09;;;;;;;;;;;;;;;19.26;71.63;100657.47;1607810;88;20192;-76
2021/06/12 04:55:35;;;;;;;;;;;;;;;19.41;71.39;100655.37;1598866;89;20723;-76
2021/06/12 04:58:02;;;;;;;;;;;;;;;19.58;71.22;100652.75;1612788;87;20567;-76
2021/06/12 05:00:28;;;;;;;;;;;;;;;19.79;71.34;100648.11;1608006;88;20165;-76
2021/06/12 05:02:54;;;;;;;;;;;;;;;20.03;71.29;100652.03;1607953;88;20452;-76
2021/06/12 05:05:20;;;;;;;;;;;;;;;20.28;71.46;100651.51;1605369;87;20278;-76
2021/06/12 05:07:46;;;;;;;;;;;;;;;20.48;70.91;100646.48;1606966;87;21111;-76
2021/06/12 05:10:12;;;;;;;;;;;;;;;20.58;70.71;100643.72;1600263;89;20200;-76
2021/06/12 05:12:39;;;;;;;;;;;;;;;20.65;70.69;100645.06;1590543;88;20571;-76
2021/06/12 05:15:07;;;;;;;;;;;;;;;20.73;70.90;100642.84;1576567;89;20492;-76
2021/06/12 05:17:33;;;;;;;;;;;;;;;20.87;70.80;100648.59;1583298;89;20140;-76
2021/06/12 05:19:59;;;;;;;;;;;;;;;20.96;70.68;100649.84;1611921;87;20490;-76
2021/06/12 05:22:27;;;;;;;;;;;;;;;21.07;70.53;100646.95;1612283;88;20434;-76
2021/06/12 05:24:54;;;;;;;;;;;;;;;21.09;70.46;100643.77;1610263;88;20443;-76
2021/06/12 05:27:20;;;;;;;;;;;;;;;21.12;70.39;100637.02;1608608;88;20414;-76
2021/06/12 05:29:46;;;;;;;;;;;;;;;21.13;70.43;100636.08;1618156;88;20422;-76
2021/06/12 05:32:13;;;;;;;;;;;;;;;21.19;70.34;100634.88;1601763;88;20426;-76
2021/06/12 05:34:40;;;;;;;;;;;;;;;21.30;70.41;100629.84;1606371;88;20493;-76
2021/06/12 05:37:07;;;;;;;;;;;;;;;21.52;70.40;100628.05;1607025;88;20118;-76
2021/06/12 05:39:33;;;;;;;;;;;;;;;21.92;70.56;100629.50;1584709;89;21048;-76
2021/06/12 05:41:59;;;;;;;;;;;;;;;22.29;70.25;100623.63;1606812;88;20110;-76
2021/06/12 05:44:26;;;;;;;;;;;;;;;22.76;70.29;100619.17;1606776;88;20708;-76
2021/06/12 05:46:52;;;;;;;;;;;;;;;23.35;70.16;100620.88;1604900;88;20143;-76
2021/06/12 05:49:19;;;;;;;;;;;;;;;23.71;69.95;100624.55;1606915;88;20190;-76
2021/06/12 05:51:46;;;;;;;;;;;;;;;24.15;69.64;100626.63;1605975;88;20426;-76
2021/06/12 05:54:12;;;;;;;;;;;;;;;24.59;69.55;100619.42;1602259;88;20786;-76
2021/06/12 05:56:38;;;;;;;;;;;;;;;25.05;69.29;100618.61;1608960;88;20532;-76
2021/06/12 05:59:04;;;;;;;;;;;;;;;25.36;69.05;100613.97;1606929;88;20237;-76
2021/06/12 06:01:31;;;;;;;;;;;;;;;25.42;68.64;100613.13;1606467;88;20580;-76
2021/06/12 06:03:57;;;;;;;;;;;;;;;25.31;68.22;100612.64;1605034;87;20540;-76
2021/06/12 06:06:23;;;;;;;;;;;;;;;25.20;68.46;100600.23;1589528;89;20557;-77
2021/06/12 06:08:50;;;;;;;;;;;;;;;25.06;68.07;100605.74;1589436;89;20110;-76
2021/06/12 06:11:16;;;;;;;;;;;;;;;24.93;68.08;100600.55;1583575;88;20161;-76
2021/06/12 06:13:45;;;;;;;;;;;;;;;24.89;68.10;100603.05;1589736;88;20228;-76
2021/06/12 06:16:12;;;;;;;;;;;;;;;24.79;68.01;100600.73;1626745;86;20134;-76
2021/06/12 06:18:39;;;;;;;;;;;;;;;24.72;68.25;100597.71;1637578;86;20486;-76
2021/06/12 06:21:06;;;;;;;;;;;;;;;24.63;68.05;100601.52;1634149;86;20519;-76
2021/06/12 06:23:32;;;;;;;;;;;;;;;24.38;67.91;100600.73;1633964;86;20122;-76
2021/06/12 06:25:59;;;;;;;;;;;;;;;24.18;67.75;100599.98;1629430;86;20145;-76
2021/06/12 06:28:25;;;;;;;;;;;;;;;23.98;67.83;100597.94;1634151;86;20097;-76
2021/06/12 06:30:51;;;;;;;;;;;;;;;23.86;67.81;100599.70;1633931;86;20130;-76
2021/06/12 06:33:17;;;;;;;;;;;;;;;23.71;67.69;100589.75;1632041;86;20223;-76
2021/06/12 06:35:43;;;;;;;;;;;;;;;23.56;67.77;100588.19;1632279;86;20134;-76
2021/06/12 06:38:09;;;;;;;;;;;;;;;23.44;67.75;100591.66;1640715;86;20108;-76
2021/06/12 06:40:35;;;;;;;;;;;;;;;23.30;67.73;100591.80;1637928;86;20153;-76
2021/06/12 06:43:01;;;;;;;;;;;;;;;23.19;68.09;100589.05;1633112;86;20139;-76
2021/06/12 06:45:28;;;;;;;;;;;;;;;23.15;67.73;100585.78;1633881;86;20139;-76
2021/06/12 06:47:54;;;;;;;;;;;;;;;23.04;67.77;100579.92;1633659;86;20102;-76
2021/06/12 06:50:20;;;;;;;;;;;;;;;22.98;67.72;100586.93;1634596;86;20176;-76
2021/06/12 06:52:48;;;;;;;;;;;;;;;22.91;67.73;100584.34;1633900;87;20126;-76
2021/06/12 06:55:14;;;;;;;;;;;;;;;22.87;67.76;100586.84;1630861;86;20101;-76
2021/06/12 06:57:40;;;;;;;;;;;;;;;22.83;67.73;100580.09;1639949;86;20135;-76
2021/06/12 07:00:07;;;;;;;;;;;;;;;22.79;67.55;100573.33;1642494;86;20152;-76
2021/06/12 07:02:33;;;;;;;;;;;;;;;22.71;67.54;100569.86;1631417;86;20525;-76
2021/06/12 07:04:59;;;;;;;;;;;;;;;22.69;67.60;100569.12;1639741;86;20144;-76
2021/06/12 07:07:25;;;;;;;;;;;;;;;22.72;67.66;100569.39;1640344;86;20106;-76
2021/06/12 07:09:53;;;;;;;;;;;;;;;22.80;67.48;100568.43;1628954;86;20173;-76
2021/06/12 07:12:19;;;;;;;;;;;;;;;22.93;67.75;100563.98;1629393;86;20148;-76
2021/06/12 07:14:45;;;;;;;;;;;;;;;23.14;67.48;100573.55;1631038;86;20155;-76
2021/06/12 07:17:11;;;;;;;;;;;;;;;23.24;67.43;100575.07;1627700;86;20093;-79
2021/06/12 07:19:37;;;;;;;;;;;;;;;23.26;67.07;100571.85;1628264;86;20098;-79
2021/06/12 07:22:04;;;;;;;;;;;;;;;23.23;67.08;100572.06;1632246;86;20145;-79
2021/06/12 07:24:31;;;;;;;;;;;;;;;23.22;66.93;100572.54;1635972;86;20099;-78
2021/06/12 07:26:57;;;;;;;;;;;;;;;23.15;66.82;100575.70;1636538;86;20153;-79
2021/06/12 07:29:23;;;;;;;;;;;;;;;23.04;66.76;100569.84;1640088;86;20133;-80
2021/06/12 07:31:49;;;;;;;;;;;;;;;22.98;66.89;100572.90;1632228;86;20106;-80
2021/06/12 07:34:15;;;;;;;;;;;;;;;22.93;66.80;100575.84;1633478;86;20098;-80
2021/06/12 07:36:41;;;;;;;;;;;;;;;22.83;66.80;100572.66;1637685;86;20140;-79
2021/06/12 07:39:08;;;;;;;;;;;;;;;22.74;66.58;100569.66;1627286;86;20105;-79
2021/06/12 07:41:38;;;;;;;;;;;;;;;22.65;66.61;100572.91;1631976;86;20106;-79
2021/06/12 07:44:05;;;;;;;;;;;;;;;22.57;66.56;100575.67;1631370;88;20098;-79
2021/06/12 07:46:32;;;;;;;;;;;;;;;22.50;66.47;100575.71;1632130;86;20113;-79
2021/06/12 07:48:58;;;;;;;;;;;;;;;22.39;66.42;100577.26;1631696;86;20110;-79
2021/06/12 07:51:24;;;;;;;;;;;;;;;22.29;66.21;100577.52;1632291;86;20105;-79
2021/06/12 07:53:50;;;;;;;;;;;;;;;22.20;66.06;100581.22;1626982;86;20150;-79
2021/06/12 07:56:16;;;;;;;;;;;;;;;22.11;66.12;100586.14;1632042;88;20130;-79
2021/06/12 07:58:42;;;;;;;;;;;;;;;22.02;65.98;100588.52;1637381;86;20189;-79
2021/06/12 08:01:08;;;;;;;;;;;;;;;21.93;66.10;100588.59;1639359;86;20149;-79
2021/06/12 08:03:35;;;;;;;;;;;;;;;21.83;65.94;100593.25;1631998;86;20134;-80
2021/06/12 08:06:01;;;;;;;;;;;;;;;21.75;65.88;100598.53;1631866;86;20460;-80
2021/06/12 08:08:27;;;;;;;;;;;;;;;21.64;66.03;100607.56;1632259;86;20180;-80
2021/06/12 08:10:53;;;;;;;;;;;;;;;21.54;65.88;100605.59;1632280;86;20102;-80
2021/06/12 08:13:19;;;;;;;;;;;;;;;21.50;65.98;100613.30;1632325;86;20738;-80
2021/06/12 08:15:45;;;;;;;;;;;;;;;21.44;65.97;100615.36;1621155;86;20167;-77
2021/06/12 08:18:11;;;;;;;;;;;;;;;21.36;65.87;100620.70;1614245;86;20142;-76
2021/06/12 08:20:37;;;;;;;;;;;;;;;21.26;65.83;100618.28;1623289;86;20130;-76
2021/06/12 08:23:04;;;;;;;;;;;;;;;21.15;66.02;100624.16;1619683;86;20274;-75
2021/06/12 08:25:30;;;;;;;;;;;;;;;21.01;65.96;100624.97;1613026;86;20151;-75
2021/06/12 08:28:02;;;;;;;;;;;;;;;20.93;66.12;100627.20;1627367;86;20173;-78
2021/06/12 08:30:24;;;;;;;;;;;;;;;20.81;66.24;100622.19;1635494;86;20136;-78
2021/06/12 08:32:50;;;;;;;;;;;;;;;20.72;66.52;100621.45;1630844;86;20184;-78
2021/06/12 08:35:16;;;;;;;;;;;;;;;20.61;66.81;100623.84;1626455;86;20137;-78
2021/06/12 08:37:42;;;;;;;;;;;;;;;20.43;66.85;100614.38;1628059;86;20204;-78
2021/06/12 08:40:09;;;;;;;;;;;;;;;20.30;66.96;100616.81;1632034;86;20176;-77
2021/06/12 08:42:35;;;;;;;;;;;;;;;20.27;67.01;100623.59;1631016;87;20102;-77
2021/06/12 08:45:03;;;;;;;;;;;;;;;20.22;67.16;100619.52;1635861;86;20233;-77
2021/06/12 08:47:31;;;;;;;;;;;;;;;20.20;67.34;100621.39;1636679;86;20552;-77
2021/06/12 08:49:57;;;;;;;;;;;;;;;20.14;67.25;100616.86;1625872;86;20134;-77
2021/06/12 08:52:23;;;;;;;;;;;;;;;20.10;67.33;100609.23;1631254;86;20110;-77
2021/06/12 08:54:49;;;;;;;;;;;;;;;20.12;67.57;100606.91;1631278;87;20142;-77
2021/06/12 08:57:16;;;;;;;;;;;;;;;20.17;67.55;100605.34;1627881;86;20114;-77
2021/06/12 08:59:42;;;;;;;;;;;;;;;20.18;67.54;100605.72;1626302;86;20142;-77
2021/06/12 09:02:08;;;;;;;;;;;;;;;20.21;67.81;100604.70;1630861;86;20161;-77
2021/06/12 09:04:37;;;;;;;;;;;;;;;20.25;67.59;100598.34;1627330;86;20125;-77
2021/06/12 09:07:22;;;;;;;;;;;;;;;20.25;67.77;100600.97;1640739;86;20425;-77
2021/06/12 09:09:49;;;;;;;;;;;;;;;20.30;67.90;100605.47;1640018;86;20105;-77
2021/06/12 09:12:16;;;;;;;;;;;;;;;20.34;67.87;100596.02;1641438;86;20102;-78
2021/06/12 09:14:42;;;;;;;;;;;;;;;20.30;67.78;100599.75;1644046;86;20097;-79
2021/06/12 09:17:08;;;;;;;;;;;;;;;20.25;67.84;100593.94;1643295;86;20093;-79
2021/06/12 09:19:39;;;;;;;;;;;;;;;20.22;68.07;100586.23;1642273;86;20171;-79
2021/06/12 09:22:06;;;;;;;;;;;;;;;20.25;68.17;100583.44;1621632;87;20165;-79
2021/06/12 09:24:39;;;;;;;;;;;;;;;20.31;68.18;100587.47;1640100;86;20160;-78
2021/06/12 09:27:04;;;;;;;;;;;;;;;20.33;68.01;100586.91;1629974;86;20104;-78
2021/06/12 09:29:50;;;;;;;;;;;;;;;20.25;68.21;100587.38;1642218;86;20097;-78
2021/06/12 09:32:25;;;;;;;;;;;;;;;20.31;68.26;100584.84;1640296;86;20548;-78
2021/06/12 09:34:53;;;;;;;;;;;;;;;20.28;68.43;100582.38;1632426;86;20185;-78
2021/06/12 09:37:21;;;;;;;;;;;;;;;20.28;68.38;100587.17;1645730;86;20182;-78
2021/06/12 09:40:06;;;;;;;;;;;;;;;20.27;68.36;100582.88;1640921;87;20156;-79
2021/06/12 09:42:43;;;;;;;;;;;;;;;20.30;68.52;100576.58;1641528;86;20177;-79
2021/06/12 09:45:11;;;;;;;;;;;;;;;20.28;68.56;100582.38;1636023;86;20244;-79
2021/06/12 09:47:37;;;;;;;;;;;;;;;20.31;68.71;100580.89;1620221;87;20211;-79
2021/06/12 09:50:05;;;;;;;;;;;;;;;20.36;68.60;100571.83;1645915;86;20233;-79
2021/06/12 09:52:47;;;;;;;;;;;;;;;20.44;68.68;100574.89;1636227;86;20113;-79
2021/06/12 09:55:26;;;;;;;;;;;;;;;20.53;68.68;100573.52;1644907;86;20189;-79
2021/06/12 09:57:54;;;;;;;;;;;;;;;20.68;68.78;100572.63;1620397;87;20206;-80
2021/06/12 10:00:28;;;;;;;;;;;;;;;20.88;69.03;100572.74;1642572;86;20132;-79
2021/06/12 10:02:57;;;;;;;;;;;;;;;21.05;68.83;100573.05;1640918;86;20276;-79
2021/06/12 10:05:26;;;;;;;;;;;;;;;21.14;68.82;100567.24;1614551;86;20113;-79
2021/06/12 10:07:52;;;;;;;;;;;;;;;21.20;68.68;100570.81;1632112;86;20130;-80
2021/06/12 10:10:18;;;;;;;;;;;;;;;21.27;68.48;100569.53;1631897;87;20114;-79
2021/06/12 10:12:46;;;;;;;;;;;;;;;21.32;68.64;100562.18;1636083;86;20116;-79
2021/06/12 10:15:13;;;;;;;;;;;;;;;21.43;68.75;100572.05;1637005;86;20118;-79
2021/06/12 10:17:48;;;;;;;;;;;;;;;21.53;68.67;100563.11;1631584;88;20142;-79
2021/06/12 10:20:17;;;;;;;;;;;;;;;21.60;68.49;100559.16;1630991;86;20138;-79
2021/06/12 10:22:44;;;;;;;;;;;;;;;21.75;68.63;100563.46;1637075;86;20167;-79
2021/06/12 10:25:11;;;;;;;;;;;;;;;21.92;68.59;100563.67;1645162;86;20130;-78
2021/06/12 10:27:39;;;;;;;;;;;;;;;22.06;68.47;100553.14;1627194;87;20114;-78
2021/06/12 10:30:06;;;;;;;;;;;;;;;22.09;68.28;100549.84;1634699;86;20141;-78
2021/06/12 10:32:32;;;;;;;;;;;;;;;22.14;68.00;100550.86;1628381;86;20097;-79
2021/06/12 10:35:02;;;;;;;;;;;;;;;22.16;67.89;100545.48;1631596;86;20102;-79
2021/06/12 10:37:27;;;;;;;;;;;;;;;22.23;67.97;100537.56;1631669;86;20138;-79
2021/06/12 10:40:04;;;;;;;;;;;;;;;22.35;68.03;100540.70;1631043;86;20130;-79
2021/06/12 10:42:30;;;;;;;;;;;;;;;22.39;67.75;100531.63;1573932;89;20149;-79
2021/06/12 10:44:56;;;;;;;;;;;;;;;22.35;67.77;100519.16;1576150;90;20177;-79
2021/06/12 10:47:43;;;;;;;;;;;;;;;22.39;67.82;100525.88;1588928;89;20131;-79
2021/06/12 10:50:36;;;;;;;;;;;;;;;22.48;67.86;100528.84;1592074;89;20111;-78
2021/06/12 10:53:33;;;;;;;;;;;;;;;22.52;67.72;100525.06;1579202;89;20114;-78
2021/06/12 10:55:55;;;;;;;;;;;;;;;22.59;67.64;100506.58;1588330;89;20183;-78
2021/06/12 10:58:33;;;;;;;;;;;;;;;22.68;67.57;100511.23;1583263;89;20103;-78
2021/06/12 11:01:15;;;;;;;;;;;;;;;22.73;67.56;100515.23;1588788;90;20102;-78
2021/06/12 11:04:10;;;;;;;;;;;;;;;22.75;67.23;100517.30;1582553;89;20153;-78
2021/06/12 11:06:50;;;;;;;;;;;;;;;22.73;67.26;100517.03;1595101;88;20488;-78
2021/06/12 11:09:32;;;;;;;;;;;;;;;22.70;67.25;100510.65;1648726;86;20190;-79
2021/06/12 11:12:03;;;;;;;;;;;;;;;22.71;67.33;100505.75;1648651;85;20217;-79
2021/06/12 11:14:32;;;;;;;;;;;;;;;22.74;67.23;100492.36;1650520;85;20146;-79
2021/06/12 11:17:12;;;;;;;;;;;;;;;22.72;67.16;100487.66;1652898;85;20173;-79
2021/06/12 11:19:44;;;;;;;;;;;;;;;22.79;67.09;100490.28;1653603;85;20422;-79
2021/06/12 11:22:30;;;;;;;;;;;;;;;22.93;67.19;100492.78;1649573;85;20129;-79
2021/06/12 11:25:02;;;;;;;;;;;;;;;23.04;67.02;100491.56;1646347;85;20371;-78
2021/06/12 11:27:31;;;;;;;;;;;;;;;23.08;66.99;100488.23;1647969;85;20346;-78
2021/06/12 11:30:22;;;;;;;;;;;;;;;23.11;66.60;100488.86;1649124;85;20153;-78
2021/06/12 11:32:58;;;;;;;;;;;;;;;23.11;66.66;100484.91;1647992;85;20209;-78
2021/06/12 11:35:50;;;;;;;;;;;;;;;23.15;66.59;100482.05;1646759;85;20454;-78
2021/06/12 11:38:19;;;;;;;;;;;;;;;23.13;66.54;100485.28;1647823;85;20224;-78
2021/06/12 11:41:01;;;;;;;;;;;;;;;23.11;66.49;100480.11;1647744;85;20488;-79
2021/06/12 11:43:32;;;;;;;;;;;;;;;23.05;66.22;100476.11;1633947;85;20193;-79
2021/06/12 11:45:58;;;;;;;;;;;;;;;22.90;66.32;100468.42;1646887;85;20182;-79
2021/06/12 11:48:25;;;;;;;;;;;;;;;22.82;66.41;100476.05;1643278;85;20188;-79
2021/06/12 11:50:52;;;;;;;;;;;;;;;22.76;66.37;100468.89;1648932;85;20125;-79
2021/06/12 11:53:21;;;;;;;;;;;;;;;22.71;66.28;100470.16;1644109;85;20098;-79
2021/06/12 11:55:48;;;;;;;;;;;;;;;22.62;66.28;100467.67;1650698;85;20122;-79
2021/06/12 11:58:15;;;;;;;;;;;;;;;22.52;66.17;100465.77;1650902;85;20102;-76
2021/06/12 12:00:44;;;;;;;;;;;;;;;22.36;66.22;100458.90;1636817;87;20188;-78
2021/06/12 12:03:16;;;;;;;;;;;;;;;22.28;66.33;100455.97;1659747;85;20332;-78
2021/06/12 12:05:44;;;;;;;;;;;;;;;22.20;66.45;100448.20;1642534;86;20329;-78
2021/06/12 12:08:13;;;;;;;;;;;;;;;22.09;66.50;100444.97;1634765;86;20181;-79
2021/06/12 12:10:40;;;;;;;;;;;;;;;22.03;66.52;100448.85;1640581;86;20393;-79
2021/06/12 12:13:33;;;;;;;;;;;;;;;22.01;66.61;100441.97;1634151;86;20101;-79
2021/06/12 12:15:54;;;;;;;;;;;;;;;;;;1638694;86;20120;-79
2021/06/12 12:18:20;;;;;;;;;;;;;;;21.76;66.60;100438.81;1647074;86;21848;-79
2021/06/12 12:20:48;;;;;;;;;;;;;;;21.70;66.67;100433.94;1645509;85;20143;-79
2021/06/12 12:23:20;;;;;;;;;;;;;;;21.58;66.52;100427.69;1642970;86;20090;-78
2021/06/12 12:25:46;;;;;;;;;;;;;;;21.47;66.85;100421.80;1632871;86;20101;-78
2021/06/12 12:28:26;;;;;;;;;;;;;;;21.37;66.83;100418.53;1643702;86;20437;-78
2021/06/12 12:30:48;;;;;;;;;;;;;;;21.17;66.91;100425.52;1628617;86;20769;-78
2021/06/12 12:33:17;;;;;;;;;;;;;;;20.97;66.94;100416.25;1646749;86;20144;-78
2021/06/12 12:35:43;;;;;;;;;;;;;;;20.71;67.27;100417.41;1652890;85;20097;-79
2021/06/12 12:38:18;;;;;;;;;;;;;;;20.50;67.90;100420.02;1640470;86;20101;-79
2021/06/12 12:40:46;;;;;;;;;;;;;;;20.19;68.42;100418.37;1642565;86;20101;-79
2021/06/12 12:43:13;;;;;;;;;;;;;;;19.65;69.27;100416.70;1641472;86;20109;-79